Time;durP1;ratioP1;P1;durP2;ratioP2;P2;SDS_P1;SDS_P2;PMS_P1;PMS_P2;Temp;Humidity;BMP_temperature;BMP_pressure;BME280_temperature;BME280_humidity;BME280_pressure;Samples;Min_cycle;Max_cycle;Signal;HPM_P1;HPM_P2
2023/03/22 00:01:10;;;;;;;26.85;14.48;;;;;;;15.22;70.00;100858.31;5077795;27;98616;-73
2023/03/22 00:03:36;;;;;;;24.08;14.55;;;;;;;15.03;70.40;100854.91;5076909;27;97377;-71
2023/03/22 00:06:03;;;;;;;23.20;14.40;;;;;;;15.16;70.24;100856.00;5077830;27;96833;-71
2023/03/22 00:08:31;;;;;;;22.08;13.60;;;;;;;15.19;69.69;100847.81;5077814;27;100364;-71
2023/03/22 00:10:58;;;;;;;18.95;13.07;;;;;;;15.17;69.86;100855.03;5073193;27;99141;-71
2023/03/22 00:13:24;;;;;;;21.10;14.25;;;;;;;15.15;69.59;100859.59;5076319;27;97217;-71
2023/03/22 00:15:51;;;;;;;24.13;13.32;;;;;;;15.28;69.44;100859.78;5083093;27;97351;-71
2023/03/22 00:18:19;;;;;;;23.17;13.68;;;;;;;15.02;70.12;100858.50;5078714;27;99079;-72
2023/03/22 00:20:49;;;;;;;22.70;13.40;;;;;;;15.05;69.83;100847.69;5078803;27;98808;-72
2023/03/22 00:23:15;;;;;;;23.65;14.55;;;;;;;14.92;70.37;100846.59;5079611;27;97183;-73
2023/03/22 00:25:43;;;;;;;28.95;13.85;;;;;;;14.96;70.31;100849.03;5079732;27;97572;-72
2023/03/22 00:28:10;;;;;;;25.27;14.02;;;;;;;14.84;70.56;100841.66;5080583;27;99156;-71
2023/03/22 00:30:37;;;;;;;21.92;13.93;;;;;;;14.81;70.89;100839.19;5074737;27;98948;-71
2023/03/22 00:33:04;;;;;;;21.15;14.05;;;;;;;15.16;69.62;100843.50;5076879;27;97151;-72
2023/03/22 00:35:30;;;;;;;21.77;13.82;;;;;;;15.01;70.19;100846.13;5076379;27;97509;-72
2023/03/22 00:38:04;;;;;;;23.73;14.20;;;;;;;15.12;69.55;100827.78;5075990;27;99351;-71
2023/03/22 00:40:31;;;;;;;27.92;13.77;;;;;;;15.02;70.18;100827.44;5076438;27;99014;-72
2023/03/22 00:42:59;;;;;;;20.20;13.50;;;;;;;15.07;70.14;100827.19;5072313;27;98850;-71
2023/03/22 00:45:26;;;;;;;21.52;13.63;;;;;;;15.07;69.88;100824.53;5075023;27;97353;-72
2023/03/22 00:47:52;;;;;;;21.23;13.52;;;;;;;15.11;69.69;100826.06;5077461;27;99015;-72
2023/03/22 00:50:18;;;;;;;21.45;12.85;;;;;;;14.97;69.91;100839.22;5080871;27;98996;-71
2023/03/22 00:52:45;;;;;;;20.33;12.98;;;;;;;14.79;70.34;100829.56;5080805;27;97337;-72
2023/03/22 00:55:11;;;;;;;20.67;14.02;;;;;;;14.79;70.63;100824.22;5079728;27;97817;-71
2023/03/22 00:57:38;;;;;;;25.70;13.15;;;;;;;14.91;70.16;100834.22;5086944;27;99403;-71
2023/03/22 01:00:09;;;;;;;25.83;13.48;;;;;;;14.75;70.53;100828.88;5084714;27;99087;-73
2023/03/22 01:02:36;;;;;;;25.23;13.52;;;;;;;14.86;70.07;100836.28;5081669;27;98739;-73
2023/03/22 01:05:05;;;;;;;23.58;13.23;;;;;;;14.84;70.26;100838.16;5076882;27;96940;-73
2023/03/22 01:07:32;;;;;;;22.13;13.32;;;;;;;14.93;69.96;100833.22;5084462;27;98916;-73
2023/03/22 01:09:59;;;;;;;25.85;14.18;;;;;;;14.93;69.71;100829.69;5080827;27;98968;-72
2023/03/22 01:12:25;;;;;;;20.45;13.23;;;;;;;14.89;69.79;100814.84;5080382;27;97325;-73
2023/03/22 01:14:52;;;;;;;21.38;14.38;;;;;;;14.96;69.50;100816.25;5080361;27;98465;-73
2023/03/22 01:17:20;;;;;;;23.05;13.65;;;;;;;14.73;70.28;100818.28;5076454;27;99110;-73
2023/03/22 01:19:46;;;;;;;25.80;14.30;;;;;;;14.90;70.32;100821.91;5081641;27;98861;-74
2023/03/22 01:22:13;;;;;;;21.65;13.48;;;;;;;14.86;69.67;100818.53;5076303;27;97472;-73
2023/03/22 01:24:39;;;;;;;23.25;14.27;;;;;;;15.01;69.33;100807.09;5080960;27;96976;-73
2023/03/22 01:27:06;;;;;;;25.13;14.20;;;;;;;14.90;69.74;100813.91;5079743;27;98936;-73
2023/03/22 01:29:34;;;;;;;25.35;14.30;;;;;;;14.82;70.11;100813.44;5084101;27;99281;-71
2023/03/22 01:32:00;;;;;;;26.08;15.20;;;;;;;14.85;70.05;100795.50;5084184;27;97261;-72
2023/03/22 01:34:28;;;;;;;22.65;13.93;;;;;;;15.07;69.06;100797.91;5076427;27;98738;-72
2023/03/22 01:36:55;;;;;;;20.70;13.95;;;;;;;14.94;69.55;100792.38;5078264;27;98902;-72
2023/03/22 01:39:21;;;;;;;22.83;14.30;;;;;;;15.03;69.21;100791.03;5081983;27;99788;-72
2023/03/22 01:41:48;;;;;;;22.75;13.80;;;;;;;14.97;69.04;100789.53;5080972;27;97004;-72
2023/03/22 01:44:16;;;;;;;24.35;13.40;;;;;;;14.94;69.25;100794.19;5076371;27;96977;-71
2023/03/22 01:46:44;;;;;;;22.50;13.85;;;;;;;14.86;69.57;100783.06;5078050;27;98911;-71
2023/03/22 01:49:15;;;;;;;21.10;14.55;;;;;;;14.90;69.39;100784.66;5084807;27;99732;-72
2023/03/22 01:51:46;;;;;;;22.95;14.05;;;;;;;14.99;68.96;100792.13;5078513;27;97561;-71
2023/03/22 01:54:20;;;;;;;22.35;13.98;;;;;;;14.72;69.88;100789.97;5079665;27;96891;-72
2023/03/22 01:56:47;;;;;;;21.42;13.77;;;;;;;14.59;70.30;100782.69;5076949;27;98960;-72
2023/03/22 01:59:15;;;;;;;24.90;14.27;;;;;;;14.70;70.14;100783.84;5084035;27;98817;-71
2023/03/22 02:01:45;;;;;;;20.55;13.65;;;;;;;14.73;70.02;100781.06;5075490;27;97562;-72
2023/03/22 02:04:15;;;;;;;23.40;14.30;;;;;;;14.80;69.74;100770.09;5082906;27;97579;-72
2023/03/22 02:06:45;;;;;;;20.27;13.98;;;;;;;14.70;70.15;100781.19;5077037;27;99129;-72
2023/03/22 02:09:15;;;;;;;20.83;13.50;;;;;;;14.61;70.35;100778.19;5081846;27;97998;-72
2023/03/22 02:11:46;;;;;;;22.48;13.57;;;;;;;14.61;69.99;100776.38;5085296;27;96746;-71
2023/03/22 02:14:30;;;;;;;23.50;13.30;;;;;;;14.32;71.26;100771.63;5077713;27;98241;-71
2023/03/22 02:17:09;;;;;;;25.45;14.20;;;;;;;14.25;71.54;100778.19;5074793;27;97699;-71
2023/03/22 02:20:06;;;;;;;25.15;13.88;;;;;;;14.36;70.96;100765.25;5079171;27;99663;-71
2023/03/22 02:23:21;;;;;;;21.55;14.52;;;;;;;14.53;70.27;100773.25;5079574;27;97188;-71
2023/03/22 02:26:19;;;;;;;25.08;14.25;;;;;;;14.57;69.81;100766.00;5020264;27;97023;-71
2023/03/22 02:28:52;;;;;;;23.20;13.85;;;;;;;14.66;69.42;100768.16;5083177;27;99322;-71
2023/03/22 02:31:41;;;;;;;22.70;13.68;;;;;;;14.40;70.13;100761.50;5080040;27;98827;-72
2023/03/22 02:34:26;;;;;;;19.85;13.80;;;;;;;14.33;70.32;100768.91;5080083;27;96877;-74
2023/03/22 02:37:31;;;;;;;23.33;13.70;;;;;;;14.65;69.20;100775.28;5082618;27;98502;-72
2023/03/22 02:40:04;;;;;;;20.70;13.68;;;;;;;14.63;69.03;100769.19;5081038;27;98749;-72
2023/03/22 02:42:43;;;;;;;25.73;14.90;;;;;;;14.43;69.47;100758.72;5082365;27;99215;-73
2023/03/22 02:45:16;;;;;;;22.23;13.65;;;;;;;14.60;68.85;100755.19;5083746;27;97223;-72
2023/03/22 02:47:54;;;;;;;22.42;13.23;;;;;;;14.29;69.87;100751.41;5085849;27;97055;-72
2023/03/22 02:50:28;;;;;;;21.73;14.05;;;;;;;14.39;69.62;100756.28;5080247;27;99085;-73
2023/03/22 02:53:01;;;;;;;22.33;13.77;;;;;;;14.20;70.09;100753.66;5078794;27;97792;-72
2023/03/22 02:55:34;;;;;;;22.23;13.75;;;;;;;14.51;68.72;100760.97;5077104;27;97098;-71
2023/03/22 02:58:07;;;;;;;20.98;13.95;;;;;;;14.69;68.16;100750.25;5084095;27;97331;-72
2023/03/22 03:00:37;;;;;;;20.17;13.43;;;;;;;14.54;68.07;100750.19;5080481;27;97783;-73
2023/03/22 03:03:10;;;;;;;18.15;12.90;;;;;;;14.77;67.43;100750.69;5077807;27;98386;-73
2023/03/22 03:05:39;;;;;;;23.40;14.65;;;;;;;14.60;67.82;100745.41;5080085;27;99199;-72
2023/03/22 03:08:08;;;;;;;18.83;12.35;;;;;;;14.25;68.53;100751.63;5077519;27;97431;-73
2023/03/22 03:10:36;;;;;;;22.45;13.77;;;;;;;14.60;67.85;100747.19;5075523;27;101219;-73
2023/03/22 03:13:03;;;;;;;19.38;13.70;;;;;;;14.27;68.59;100745.31;5081296;27;97816;-72
2023/03/22 03:15:30;;;;;;;21.25;14.48;;;;;;;14.62;67.63;100738.22;5073237;27;96838;-73
2023/03/22 03:18:08;;;;;;;19.23;13.10;;;;;;;14.53;67.78;100751.13;5083576;27;96816;-74
2023/03/22 03:20:47;;;;;;;20.20;13.25;;;;;;;14.34;68.45;100751.16;5076066;27;99500;-73
2023/03/22 03:23:28;;;;;;;25.33;13.70;;;;;;;14.27;68.56;100747.09;5079795;27;99251;-72
2023/03/22 03:26:01;;;;;;;20.60;13.02;;;;;;;14.29;68.17;100762.03;5081158;27;96916;-72
2023/03/22 03:28:38;;;;;;;20.25;13.90;;;;;;;14.01;69.23;100752.84;5079250;27;97305;-72
2023/03/22 03:31:14;;;;;;;20.83;13.90;;;;;;;14.09;69.30;100758.66;5079688;27;99300;-72
2023/03/22 03:33:45;;;;;;;;;;;;;;;13.91;69.42;100766.56;5078549;27;99321;-73
2023/03/22 03:36:15;;;;;;;18.08;13.32;;;;;;;14.06;68.97;100764.09;5082303;27;97604;-72
2023/03/22 03:38:46;;;;;;;22.13;13.95;;;;;;;14.07;68.79;100763.19;5077119;27;98044;-71
2023/03/22 03:41:17;;;;;;;24.50;14.43;;;;;;;14.10;68.78;100755.06;5080924;27;99261;-71
2023/03/22 03:43:45;;;;;;;22.40;14.38;;;;;;;14.33;67.72;100763.59;5077205;27;98851;-72
2023/03/22 03:46:12;;;;;;;23.08;14.48;;;;;;;14.14;67.97;100761.94;5075066;27;96824;-72
2023/03/22 03:48:41;;;;;;;22.85;13.73;;;;;;;14.03;68.36;100751.00;5073095;27;97870;-72
2023/03/22 03:51:08;;;;;;;18.73;12.98;;;;;;;14.13;68.55;100753.09;5070531;27;98941;-73
2023/03/22 03:53:37;;;;;;;19.30;13.07;;;;;;;14.29;67.73;100739.91;5079519;27;102008;-73
2023/03/22 03:56:04;;;;;;;20.42;13.25;;;;;;;14.24;67.21;100753.41;5073292;27;98865;-72
2023/03/22 03:58:32;;;;;;;17.65;12.73;;;;;;;14.09;67.88;100748.03;5076546;27;97212;-72
2023/03/22 04:00:59;;;;;;;20.17;13.60;;;;;;;14.12;67.84;100746.06;5080549;27;98968;-74
2023/03/22 04:03:25;;;;;;;18.48;13.30;;;;;;;14.27;67.35;100755.06;5076003;27;97282;-73
2023/03/22 04:05:52;;;;;;;16.75;12.15;;;;;;;14.25;67.35;100743.66;5083799;27;97715;-71
2023/03/22 04:08:18;;;;;;;17.58;12.48;;;;;;;14.51;66.34;100745.88;5077420;27;96925;-71
2023/03/22 04:10:49;;;;;;;20.90;13.88;;;;;;;14.60;66.24;100745.41;5085140;27;98972;-72
2023/03/22 04:13:15;;;;;;;21.40;13.38;;;;;;;14.56;66.10;100759.81;5073289;27;98006;-73
2023/03/22 04:15:43;;;;;;;24.88;13.52;;;;;;;14.63;65.61;100750.56;5074618;27;96953;-73
2023/03/22 04:18:11;;;;;;;19.25;12.10;;;;;;;14.56;65.68;100746.50;5076470;27;97171;-72
2023/03/22 04:20:40;;;;;;;20.25;12.50;;;;;;;14.56;65.49;100757.16;5082219;27;99400;-72
2023/03/22 04:23:09;;;;;;;19.65;12.63;;;;;;;14.60;65.32;100761.34;5079145;27;99093;-72
2023/03/22 04:25:36;;;;;;;23.42;14.05;;;;;;;14.25;66.08;100752.47;5080352;27;96848;-72
2023/03/22 04:28:03;;;;;;;16.80;11.68;;;;;;;14.32;66.45;100753.91;5085899;27;96750;-72
2023/03/22 04:30:34;;;;;;;17.17;12.10;;;;;;;14.52;65.71;100752.91;5080131;27;99052;-73
2023/03/22 04:33:05;;;;;;;18.10;12.77;;;;;;;14.50;65.31;100748.63;5074159;27;99802;-71
2023/03/22 04:35:32;;;;;;;18.60;13.15;;;;;;;14.50;65.64;100749.50;5076053;27;97753;-73
2023/03/22 04:38:00;;;;;;;20.25;12.73;;;;;;;14.42;65.43;100750.81;5078792;27;97184;-73
2023/03/22 04:40:30;;;;;;;19.35;12.45;;;;;;;14.44;65.62;100749.78;5076696;27;99856;-72
2023/03/22 04:42:57;;;;;;;17.85;12.23;;;;;;;14.47;65.25;100746.13;5084482;27;102211;-73
2023/03/22 04:45:27;;;;;;;20.58;12.15;;;;;;;14.48;65.08;100746.03;5084865;27;96828;-72
2023/03/22 04:47:57;;;;;;;16.73;11.38;;;;;;;14.43;65.17;100741.91;5077341;27;96945;-73
2023/03/22 04:50:27;;;;;;;19.95;12.40;;;;;;;14.32;65.34;100739.75;5079898;27;99140;-72
2023/03/22 04:52:53;;;;;;;18.10;12.18;;;;;;;14.43;65.16;100737.44;5080372;27;97613;-72
2023/03/22 04:55:20;;;;;;;21.08;13.05;;;;;;;14.31;65.51;100740.69;5071567;27;97500;-72
2023/03/22 04:57:46;;;;;;;21.25;13.57;;;;;;;14.24;65.65;100736.63;5072698;27;97064;-72
2023/03/22 05:00:14;;;;;;;16.50;11.98;;;;;;;14.29;65.46;100726.63;5076683;27;99363;-72
2023/03/22 05:02:40;;;;;;;18.02;12.55;;;;;;;14.01;65.91;100724.50;5076413;27;98836;-73
2023/03/22 05:05:07;;;;;;;19.98;12.07;;;;;;;14.15;65.84;100729.13;5075928;27;98591;-73
2023/03/22 05:07:35;;;;;;;18.38;12.10;;;;;;;14.24;65.17;100718.03;5074153;27;97294;-73
2023/03/22 05:10:01;;;;;;;22.40;12.82;;;;;;;13.98;65.81;100714.88;5075698;27;98969;-75
2023/03/22 05:12:28;;;;;;;21.50;12.45;;;;;;;14.21;65.59;100716.38;5074843;27;101012;-74
2023/03/22 05:14:54;;;;;;;21.55;12.80;;;;;;;14.35;65.00;100719.19;5074856;27;96990;-76
2023/03/22 05:17:21;;;;;;;19.90;12.30;;;;;;;14.25;65.19;100717.06;5078097;27;97616;-74
2023/03/22 05:19:47;;;;;;;16.50;11.45;;;;;;;14.28;65.06;100722.25;5075534;27;100481;-72
2023/03/22 05:22:14;;;;;;;16.77;12.38;;;;;;;14.29;65.08;100713.34;5074319;27;100612;-74
2023/03/22 05:24:41;;;;;;;21.67;12.63;;;;;;;14.33;64.73;100718.41;5079394;27;97427;-73
2023/03/22 05:27:09;;;;;;;19.40;12.70;;;;;;;14.36;64.66;100725.38;5077339;27;96919;-73
2023/03/22 05:29:36;;;;;;;18.75;11.90;;;;;;;14.40;64.15;100712.81;5075049;27;99401;-73
2023/03/22 05:32:02;;;;;;;17.48;12.07;;;;;;;14.41;64.06;100720.72;5074910;27;100875;-74
2023/03/22 05:34:34;;;;;;;17.63;11.38;;;;;;;14.45;63.98;100722.25;5079298;27;98733;-74
2023/03/22 05:37:00;;;;;;;19.00;10.93;;;;;;;14.43;64.18;100724.16;5079514;27;97844;-77
2023/03/22 05:39:27;;;;;;;20.73;12.25;;;;;;;14.21;64.62;100718.19;5079407;27;98791;-74
2023/03/22 05:41:54;;;;;;;21.58;12.38;;;;;;;14.15;65.01;100722.00;5078024;27;97571;-74
2023/03/22 05:44:21;;;;;;;19.88;11.98;;;;;;;14.36;64.21;100715.59;5077822;27;97755;-75
2023/03/22 05:46:47;;;;;;;19.20;11.70;;;;;;;14.29;64.45;100721.31;5079442;27;98401;-75
2023/03/22 05:49:14;;;;;;;19.02;12.63;;;;;;;14.31;64.09;100719.41;5085863;27;99330;-75
2023/03/22 05:51:41;;;;;;;18.52;11.98;;;;;;;14.19;65.02;100714.72;5077163;27;100271;-74
2023/03/22 05:54:09;;;;;;;18.00;11.88;;;;;;;14.40;64.11;100710.16;5086285;27;96771;-74
2023/03/22 05:56:38;;;;;;;21.05;11.77;;;;;;;14.35;64.32;100713.03;5080468;27;97366;-74
2023/03/22 05:59:06;;;;;;;17.60;11.70;;;;;;;14.43;63.92;100705.53;5075716;27;98966;-74
2023/03/22 06:01:33;;;;;;;21.20;12.73;;;;;;;14.14;64.17;100703.47;5080744;27;98928;-73
2023/03/22 06:03:59;;;;;;;27.23;14.68;;;;;;;14.28;64.15;100704.50;5080486;27;96896;-74
2023/03/22 06:06:26;;;;;;;19.48;11.68;;;;;;;14.46;63.37;100700.06;5080048;27;98561;-74
2023/03/22 06:08:53;;;;;;;21.40;11.90;;;;;;;14.47;63.58;100704.44;5075989;27;99053;-74
2023/03/22 06:11:19;;;;;;;16.80;11.40;;;;;;;14.36;63.56;100702.31;5073752;27;99192;-74
2023/03/22 06:13:45;;;;;;;15.95;11.45;;;;;;;14.24;63.83;100702.91;5078397;27;98802;-75
2023/03/22 06:16:14;;;;;;;16.90;11.73;;;;;;;14.28;64.17;100706.28;5077393;27;98531;-73
2023/03/22 06:18:43;;;;;;;20.77;12.18;;;;;;;14.43;63.54;100708.22;5079485;27;97939;-75
2023/03/22 06:21:09;;;;;;;18.08;11.45;;;;;;;14.58;62.98;100701.19;5083331;27;101503;-73
2023/03/22 06:23:36;;;;;;;20.80;13.05;;;;;;;14.57;63.22;100702.16;5080903;27;96771;-75
2023/03/22 06:26:03;;;;;;;20.02;11.80;;;;;;;14.32;63.45;100713.16;5085669;27;97032;-73
2023/03/22 06:28:29;;;;;;;20.85;12.73;;;;;;;14.48;63.11;100698.19;5082080;27;97895;-74
2023/03/22 06:30:56;;;;;;;32.80;13.55;;;;;;;14.31;63.52;100706.13;5079044;27;99217;-74
2023/03/22 06:33:24;;;;;;;18.42;11.95;;;;;;;14.62;62.94;100700.13;5087207;27;96929;-73
2023/03/22 06:35:50;;;;;;;17.23;11.60;;;;;;;14.52;63.21;100705.03;5077120;27;97161;-73
2023/03/22 06:38:16;;;;;;;20.40;12.25;;;;;;;14.72;62.65;100710.19;5080895;27;99698;-75
2023/03/22 06:40:43;;;;;;;18.63;11.75;;;;;;;14.67;62.36;100706.91;5080646;27;101794;-75
2023/03/22 06:43:09;;;;;;;21.48;12.93;;;;;;;14.62;62.32;100706.31;5095805;27;96688;-73
2023/03/22 06:45:36;;;;;;;23.77;12.52;;;;;;;14.81;62.34;100715.97;5074191;27;97835;-73
2023/03/22 06:48:02;;;;;;;22.77;11.90;;;;;;;14.72;62.25;100714.63;5087261;27;97567;-74
2023/03/22 06:50:31;;;;;;;19.95;12.07;;;;;;;14.56;62.66;100714.59;5078219;27;97418;-73
2023/03/22 06:52:57;;;;;;;20.20;12.18;;;;;;;14.73;62.35;100714.56;5078899;27;97291;-76
2023/03/22 06:55:24;;;;;;;19.38;12.25;;;;;;;14.67;62.51;100719.34;5073932;27;96930;-74
2023/03/22 06:57:50;;;;;;;18.45;11.88;;;;;;;14.65;62.72;100715.91;5077167;27;98272;-74
2023/03/22 07:00:17;;;;;;;21.52;13.27;;;;;;;14.82;62.24;100717.69;5089808;27;99701;-74
2023/03/22 07:02:44;;;;;;;19.92;12.40;;;;;;;14.92;61.96;100710.91;5077830;27;97656;-73
2023/03/22 07:05:10;;;;;;;23.63;13.18;;;;;;;15.16;61.20;100712.25;5079168;27;97369;-74
2023/03/22 07:07:39;;;;;;;20.15;11.27;;;;;;;15.07;61.19;100715.41;5076986;27;99254;-74
2023/03/22 07:10:07;;;;;;;20.02;12.15;;;;;;;15.16;60.76;100717.59;5076250;27;98437;-74
2023/03/22 07:12:34;;;;;;;21.83;13.65;;;;;;;15.08;60.76;100717.13;5072718;27;97177;-74
2023/03/22 07:15:00;;;;;;;21.00;11.95;;;;;;;14.99;60.90;100717.63;5078650;27;98806;-74
2023/03/22 07:17:30;;;;;;;18.10;11.70;;;;;;;15.04;60.73;100720.88;5085613;27;99076;-74
2023/03/22 07:19:56;;;;;;;24.52;15.18;;;;;;;15.22;60.64;100717.25;5075847;27;99169;-72
2023/03/22 07:22:23;;;;;;;23.23;14.68;;;;;;;15.30;60.53;100725.66;5076481;27;96818;-73
2023/03/22 07:24:51;;;;;;;21.33;12.48;;;;;;;15.37;60.04;100719.03;5077410;27;97893;-74
2023/03/22 07:27:18;;;;;;;25.05;12.80;;;;;;;15.60;59.03;100719.59;5078061;27;99607;-74
2023/03/22 07:29:44;;;;;;;21.65;11.30;;;;;;;15.51;59.34;100703.16;5075674;27;98832;-73
2023/03/22 07:32:11;;;;;;;19.90;11.63;;;;;;;15.39;59.83;100714.50;5077015;27;98937;-75
2023/03/22 07:34:38;;;;;;;21.58;12.45;;;;;;;15.48;59.39;100718.47;5077984;27;97582;-74
2023/03/22 07:37:05;;;;;;;17.77;12.20;;;;;;;15.35;59.63;100712.09;5080312;27;97787;-74
2023/03/22 07:39:33;;;;;;;18.55;12.30;;;;;;;15.28;59.98;100708.06;5075330;27;100418;-75
2023/03/22 07:42:00;;;;;;;17.83;11.82;;;;;;;15.63;59.42;100700.75;5074210;27;98376;-74
2023/03/22 07:44:28;;;;;;;19.42;11.93;;;;;;;15.83;58.75;100704.00;5068749;27;96855;-75
2023/03/22 07:46:55;;;;;;;20.40;12.35;;;;;;;15.54;59.09;100696.84;5077345;27;99367;-73
2023/03/22 07:49:21;;;;;;;16.58;11.05;;;;;;;15.48;59.05;100692.69;5082862;27;98922;-74
2023/03/22 07:51:48;;;;;;;25.88;13.45;;;;;;;15.78;58.92;100692.75;5081414;27;97288;-74
2023/03/22 07:54:14;;;;;;;20.25;11.48;;;;;;;15.75;58.84;100694.75;5069062;27;96852;-74
2023/03/22 07:56:41;;;;;;;20.17;11.27;;;;;;;15.56;59.12;100678.94;5082294;27;101331;-73
2023/03/22 07:59:13;;;;;;;16.83;11.00;;;;;;;15.82;58.85;100690.75;5074623;27;99763;-73
2023/03/22 08:01:40;;;;;;;21.95;11.57;;;;;;;15.85;58.66;100687.94;5082128;27;97515;-74
2023/03/22 08:04:06;;;;;;;21.10;11.57;;;;;;;16.18;58.22;100679.75;5080641;27;97384;-74
2023/03/22 08:06:35;;;;;;;21.52;11.82;;;;;;;16.46;56.71;100679.84;5078019;27;99010;-75
2023/03/22 08:09:02;;;;;;;21.15;11.70;;;;;;;16.35;56.66;100682.25;5074641;27;98093;-74
2023/03/22 08:11:29;;;;;;;23.98;11.45;;;;;;;16.42;56.59;100688.94;5079496;27;97034;-74
2023/03/22 08:13:55;;;;;;;19.40;11.48;;;;;;;16.72;55.93;100676.47;5081272;27;97459;-74
2023/03/22 08:16:23;;;;;;;18.35;12.02;;;;;;;16.51;56.04;100680.41;5075434;27;101337;-74
2023/03/22 08:18:50;;;;;;;17.23;10.45;;;;;;;16.46;56.42;100686.97;5079538;27;99425;-75
2023/03/22 08:21:16;;;;;;;16.67;11.00;;;;;;;16.33;56.39;100687.72;5079916;27;96975;-74
2023/03/22 08:23:43;;;;;;;20.92;11.02;;;;;;;16.30;56.75;100682.56;5080667;27;96981;-74
2023/03/22 08:26:10;;;;;;;20.58;11.02;;;;;;;16.60;56.46;100687.88;5075902;27;100776;-73
2023/03/22 08:28:37;;;;;;;18.35;10.15;;;;;;;17.08;55.53;100681.28;5073809;27;99109;-74
2023/03/22 08:31:10;;;;;;;19.67;10.30;;;;;;;17.40;54.31;100675.69;5079798;27;97848;-76
2023/03/22 08:33:39;;;;;;;18.33;10.55;;;;;;;17.25;54.02;100680.22;5079739;27;96821;-76
2023/03/22 08:36:07;;;;;;;18.05;10.60;;;;;;;17.00;54.70;100682.75;5078879;27;101227;-73
2023/03/22 08:38:33;;;;;;;14.80;10.73;;;;;;;17.11;54.49;100670.41;5078280;27;100197;-74
2023/03/22 08:41:00;;;;;;;19.13;11.10;;;;;;;17.03;54.81;100661.19;5077411;27;97118;-74
2023/03/22 08:43:26;;;;;;;15.85;10.25;;;;;;;17.31;54.15;100662.94;5074226;27;97016;-74
2023/03/22 08:45:53;;;;;;;19.23;10.70;;;;;;;17.12;54.45;100660.59;5072542;27;99325;-74
2023/03/22 08:48:20;;;;;;;16.00;9.70;;;;;;;17.16;54.02;100661.25;5077783;27;98865;-74
2023/03/22 08:50:47;;;;;;;17.25;10.75;;;;;;;17.59;54.01;100660.16;5073000;27;97538;-74
2023/03/22 08:53:14;;;;;;;17.35;10.18;;;;;;;17.81;52.51;100649.81;5079875;27;96800;-75
2023/03/22 08:55:43;;;;;;;14.82;9.43;;;;;;;17.70;52.91;100647.00;5080066;27;99975;-75
2023/03/22 08:58:10;;;;;;;20.70;12.18;;;;;;;17.81;52.62;100651.63;5078950;27;98856;-75
2023/03/22 09:00:37;;;;;;;16.75;11.15;;;;;;;17.64;52.67;100644.75;5085685;27;96779;-74
2023/03/22 09:03:04;;;;;;;17.70;9.75;;;;;;;17.65;52.94;100646.47;5080567;27;98737;-73
2023/03/22 09:05:30;;;;;;;17.55;9.68;;;;;;;17.83;52.50;100641.69;5079690;27;99810;-75
2023/03/22 09:07:58;;;;;;;14.32;9.57;;;;;;;17.85;52.34;100640.63;5079377;27;100088;-74
2023/03/22 09:10:25;;;;;;;14.13;9.07;;;;;;;17.60;52.91;100636.97;5080038;27;96856;-74
2023/03/22 09:12:51;;;;;;;14.60;9.10;;;;;;;17.90;52.07;100634.97;5080978;27;96780;-75
2023/03/22 09:15:17;;;;;;;13.80;9.48;;;;;;;18.16;51.96;100628.72;5081225;27;99298;-73
2023/03/22 09:17:44;;;;;;;12.38;9.18;;;;;;;18.49;51.07;100625.53;5082529;27;97668;-75
2023/03/22 09:20:10;;;;;;;16.33;10.48;;;;;;;18.45;50.75;100626.69;5077758;27;97375;-72
2023/03/22 09:22:37;;;;;;;14.80;9.35;;;;;;;18.05;51.24;100617.88;5080376;27;97396;-73
2023/03/22 09:25:06;;;;;;;14.55;9.02;;;;;;;18.10;51.39;100617.59;5079619;27;97688;-73
2023/03/22 09:27:32;;;;;;;15.18;9.25;;;;;;;18.57;50.78;100619.66;5088473;27;100790;-73
2023/03/22 09:29:59;;;;;;;16.27;9.32;;;;;;;18.77;50.18;100620.94;5081382;27;99463;-74
2023/03/22 09:32:26;;;;;;;15.00;9.18;;;;;;;18.92;49.86;100622.47;5084719;27;97193;-73
2023/03/22 09:34:52;;;;;;;26.27;10.68;;;;;;;18.98;48.87;100622.03;5079526;27;99216;-74
2023/03/22 09:37:19;;;;;;;18.83;9.98;;;;;;;19.01;48.79;100614.66;5081610;27;100445;-73
2023/03/22 09:39:46;;;;;;;16.08;9.38;;;;;;;19.20;48.46;100624.88;5082982;27;97134;-74
2023/03/22 09:42:26;;;;;;;13.48;9.05;;;;;;;19.29;48.59;100618.88;5077164;27;96973;-75
2023/03/22 09:44:54;;;;;;;15.45;8.90;;;;;;;19.30;48.20;100622.38;5075954;27;99103;-74
2023/03/22 09:47:30;;;;;;;13.13;8.43;;;;;;;19.40;48.31;100613.56;5080238;27;99495;-74
2023/03/22 09:50:03;;;;;;;12.55;9.23;;;;;;;19.58;48.25;100615.84;5075982;27;97513;-74
2023/03/22 09:52:30;;;;;;;17.48;9.38;;;;;;;19.71;47.24;100611.28;5078689;27;97140;-75
2023/03/22 09:54:58;;;;;;;15.25;8.63;;;;;;;19.83;46.56;100597.81;5075808;27;99402;-75
2023/03/22 09:57:31;;;;;;;17.10;7.72;;;;;;;19.54;47.07;100607.22;5085466;27;98486;-75
2023/03/22 10:00:11;;;;;;;12.77;8.63;;;;;;;19.31;47.52;100600.84;5083234;27;97203;-74
2023/03/22 10:02:47;;;;;;;12.18;8.27;;;;;;;19.59;47.36;100599.66;5082940;27;96831;-74
2023/03/22 10:05:18;;;;;;;;;;;;;;;19.70;46.84;100605.06;5077573;27;99267;-73
2023/03/22 10:08:03;;;;;;;12.32;8.52;;;;;;;19.81;46.22;100604.28;5076894;27;99291;-74
2023/03/22 10:10:29;;;;;;;13.57;7.82;;;;;;;19.92;46.23;100596.25;5079201;27;98654;-76
2023/03/22 10:13:05;;;;;;;16.50;7.95;;;;;;;19.66;46.24;100597.38;5086616;27;97939;-73
2023/03/22 10:15:35;;;;;;;25.33;8.35;;;;;;;19.82;45.49;100588.03;5081345;27;101064;-75
2023/03/22 10:18:06;;;;;;;12.15;8.30;;;;;;;19.95;45.47;100590.66;5086679;27;98952;-73
2023/03/22 10:20:39;;;;;;;12.15;7.90;;;;;;;20.38;44.65;100587.34;5085133;27;97770;-74
2023/03/22 10:23:12;;;;;;;13.88;7.97;;;;;;;20.54;44.58;100579.81;5082960;27;97377;-75
2023/03/22 10:25:41;;;;;;;18.65;8.18;;;;;;;20.49;44.51;100581.97;5079562;27;101750;-74
2023/03/22 10:28:19;;;;;;;20.40;7.53;;;;;;;20.25;44.65;100568.66;5078781;27;97556;-74
2023/03/22 10:30:52;;;;;;;10.60;7.00;;;;;;;20.52;43.95;100566.50;5078698;27;97460;-75
2023/03/22 10:33:26;;;;;;;11.55;7.20;;;;;;;20.40;44.46;100561.25;5081110;27;97415;-75
2023/03/22 10:35:52;;;;;;;13.35;7.85;;;;;;;19.92;45.22;100563.22;5074651;27;98094;-74
2023/03/22 10:38:23;;;;;;;8.73;6.93;;;;;;;19.76;45.59;100553.66;5083091;27;99171;-76
2023/03/22 10:40:52;;;;;;;13.25;7.05;;;;;;;20.15;44.83;100541.66;5083895;27;96846;-75
2023/03/22 10:43:25;;;;;;;15.60;6.18;;;;;;;20.32;44.09;100542.19;5074261;27;97305;-76
2023/03/22 10:45:54;;;;;;;13.15;6.82;;;;;;;19.70;44.94;100545.25;5075630;27;99179;-77
2023/03/22 10:48:28;;;;;;;9.63;6.40;;;;;;;19.89;45.09;100538.34;5081182;27;99105;-75
2023/03/22 10:50:57;;;;;;;11.95;6.72;;;;;;;19.85;44.71;100531.53;5083317;27;96849;-75
2023/03/22 10:53:35;;;;;;;10.55;6.63;;;;;;;20.03;44.59;100523.00;5083904;27;96941;-77
2023/03/22 10:56:02;;;;;;;8.88;6.22;;;;;;;19.82;44.52;100522.88;5081086;27;100102;-75
2023/03/22 10:58:32;;;;;;;11.68;6.55;;;;;;;19.68;45.01;100525.75;5085072;27;99478;-74
2023/03/22 11:01:02;;;;;;;10.68;5.75;;;;;;;19.70;44.42;100523.78;5078194;27;96773;-74
2023/03/22 11:03:33;;;;;;;11.75;7.70;;;;;;;20.01;44.41;100525.84;5074966;27;97662;-74
2023/03/22 11:06:01;;;;;;;10.43;5.90;;;;;;;20.04;44.20;100522.03;5082680;27;99118;-75
2023/03/22 11:08:28;;;;;;;9.82;6.18;;;;;;;20.28;43.46;100525.50;5078452;27;102411;-75
2023/03/22 11:10:58;;;;;;;10.50;5.88;;;;;;;19.99;43.91;100524.22;5077535;27;97631;-75
2023/03/22 11:13:25;;;;;;;9.75;5.68;;;;;;;19.87;43.67;100515.31;5076201;27;97514;-74
2023/03/22 11:15:58;;;;;;;11.32;5.75;;;;;;;19.99;43.38;100514.34;5078153;27;98980;-75
2023/03/22 11:18:25;;;;;;;9.85;5.13;;;;;;;20.25;43.04;100518.53;5082622;27;98334;-75
2023/03/22 11:20:58;;;;;;;5.55;4.15;;;;;;;20.18;42.54;100511.09;5070890;27;97964;-75